Time;durP1;ratioP1;P1;durP2;ratioP2;P2;SDS_P1;SDS_P2;PMS_P1;PMS_P2;Temp;Humidity;BMP_temperature;BMP_pressure;BME280_temperature;BME280_humidity;BME280_pressure;Samples;Min_cycle;Max_cycle;Signal;HPM_P1;HPM_P2
2023/07/09 00:00:52;;;;;;;9.35;4.97;;;23.80;58.50;;;;;;5072258;28;20489;-68
2023/07/09 00:03:19;;;;;;;7.18;4.75;;;23.80;58.70;;;;;;5074561;28;20111;-69
2023/07/09 00:05:48;;;;;;;9.13;4.45;;;23.80;59.00;;;;;;5075478;28;20443;-68
2023/07/09 00:08:27;;;;;;;8.55;4.93;;;23.70;59.20;;;;;;5075016;28;20036;-69
2023/07/09 00:10:54;;;;;;;8.63;5.03;;;23.60;59.50;;;;;;5075862;28;20035;-68
2023/07/09 00:13:21;;;;;;;9.50;5.00;;;23.60;59.60;;;;;;5075298;28;20063;-69
2023/07/09 00:15:47;;;;;;;12.25;4.63;;;23.60;59.30;;;;;;5075713;28;20029;-69
2023/07/09 00:18:13;;;;;;;10.30;4.97;;;23.60;59.50;;;;;;5075564;28;20029;-69
2023/07/09 00:20:38;;;;;;;7.82;4.95;;;23.60;59.70;;;;;;5075910;28;20031;-68
2023/07/09 00:23:04;;;;;;;10.80;4.93;;;23.60;59.70;;;;;;5075298;28;20028;-68
2023/07/09 00:25:30;;;;;;;12.05;4.72;;;23.50;59.80;;;;;;5075063;28;20031;-68
2023/07/09 00:27:56;;;;;;;7.78;4.18;;;23.40;59.90;;;;;;5075379;28;20060;-68
2023/07/09 00:30:23;;;;;;;9.68;4.78;;;23.40;59.90;;;;;;5074975;28;20181;-68
2023/07/09 00:32:52;;;;;;;5.93;4.35;;;23.40;59.70;;;;;;5075674;28;20163;-68
2023/07/09 00:35:19;;;;;;;9.70;4.50;;;23.40;60.20;;;;;;5075006;28;20197;-68
2023/07/09 00:37:45;;;;;;;9.48;4.28;;;23.40;59.90;;;;;;5075254;28;20025;-69
2023/07/09 00:40:21;;;;;;;10.95;5.30;;;23.40;60.10;;;;;;5074883;28;20021;-69
2023/07/09 00:42:53;;;;;;;11.88;5.05;;;23.30;60.90;;;;;;5075204;28;20024;-68
2023/07/09 00:45:26;;;;;;;13.43;5.78;;;23.30;61.10;;;;;;5074565;28;20024;-68
2023/07/09 00:48:02;;;;;;;10.63;5.78;;;23.30;62.00;;;;;;5074629;28;20521;-68
2023/07/09 00:50:36;;;;;;;14.68;5.68;;;23.30;62.40;;;;;;5074738;28;20031;-68
2023/07/09 00:53:09;;;;;;;17.48;6.88;;;23.30;63.10;;;;;;5074973;28;20033;-68
2023/07/09 00:55:41;;;;;;;12.52;5.68;;;23.20;63.70;;;;;;5074846;28;20024;-68
2023/07/09 00:58:10;;;;;;;12.65;5.20;;;23.20;63.90;;;;;;5074624;28;20538;-68
2023/07/09 01:00:48;;;;;;;9.38;4.75;;;23.10;64.00;;;;;;5074426;28;20017;-68
2023/07/09 01:03:21;;;;;;;8.90;4.57;;;23.00;63.90;;;;;;5074505;28;20027;-68
2023/07/09 01:05:55;;;;;;;9.50;4.15;;;23.00;63.90;;;;;;5074906;28;20036;-69
2023/07/09 01:08:21;;;;;;;11.88;5.20;;;22.90;64.00;;;;;;5074350;28;20507;-69
2023/07/09 01:10:47;;;;;;;9.13;4.32;;;22.90;64.60;;;;;;5074626;28;20036;-68
2023/07/09 01:13:13;;;;;;;8.05;4.40;;;22.90;64.80;;;;;;5073899;28;20050;-75
2023/07/09 01:15:40;;;;;;;7.82;4.20;;;22.80;64.80;;;;;;5074349;28;20029;-68
2023/07/09 01:18:06;;;;;;;9.10;4.72;;;22.80;64.60;;;;;;5074454;28;20042;-68
2023/07/09 01:20:33;;;;;;;9.68;4.72;;;22.80;64.40;;;;;;5073646;28;20377;-68
2023/07/09 01:23:00;;;;;;;9.52;5.55;;;22.80;64.40;;;;;;5074386;28;20040;-68
2023/07/09 01:25:27;;;;;;;11.10;4.72;;;22.70;65.00;;;;;;5074021;28;20032;-68
2023/07/09 01:27:54;;;;;;;7.78;4.63;;;22.60;65.30;;;;;;5074112;28;20036;-68
2023/07/09 01:30:40;;;;;;;5.65;4.40;;;22.60;65.60;;;;;;5073816;28;20028;-68
2023/07/09 01:33:09;;;;;;;7.43;4.22;;;22.50;65.50;;;;;;5074343;28;20032;-68
2023/07/09 01:35:37;;;;;;;11.35;4.47;;;22.50;65.10;;;;;;5073718;28;20353;-68
2023/07/09 01:38:06;;;;;;;6.88;4.32;;;22.50;64.90;;;;;;5074151;28;20024;-68
2023/07/09 01:40:32;;;;;;;9.63;4.82;;;22.50;65.00;;;;;;5073649;28;20043;-68
2023/07/09 01:42:59;;;;;;;10.40;4.90;;;22.50;65.00;;;;;;5073505;28;20025;-69
2023/07/09 01:45:26;;;;;;;8.55;4.90;;;22.40;65.30;;;;;;5073570;28;20461;-68
2023/07/09 01:47:53;;;;;;;8.55;5.18;;;22.40;65.60;;;;;;5074070;28;20044;-68
2023/07/09 01:50:19;;;;;;;15.50;4.88;;;22.30;66.20;;;;;;5073452;28;20107;-68
2023/07/09 01:52:46;;;;;;;7.82;5.13;;;22.30;66.60;;;;;;5074010;28;20546;-68
2023/07/09 01:55:16;;;;;;;9.65;4.93;;;22.20;66.40;;;;;;5073541;28;20484;-68
2023/07/09 01:57:42;;;;;;;8.32;4.93;;;22.20;66.50;;;;;;5073857;28;20060;-68
2023/07/09 02:00:13;;;;;;;9.63;5.20;;;22.20;66.90;;;;;;5073696;28;20033;-68
2023/07/09 02:02:42;;;;;;;10.13;5.05;;;22.10;66.90;;;;;;5073267;28;20410;-68
2023/07/09 02:05:09;;;;;;;11.52;4.72;;;22.10;67.10;;;;;;5073636;28;20082;-68
2023/07/09 02:07:35;;;;;;;7.22;4.63;;;22.10;66.90;;;;;;5073112;28;20021;-68
2023/07/09 02:10:01;;;;;;;13.90;4.38;;;22.10;67.40;;;;;;5073095;28;20074;-68
2023/07/09 02:12:26;;;;;;;9.63;4.80;;;22.00;67.80;;;;;;5073364;28;20033;-68
2023/07/09 02:14:52;;;;;;;13.43;5.38;;;22.00;67.80;;;;;;5074212;28;20025;-68
2023/07/09 02:17:17;;;;;;;14.85;5.93;;;22.00;67.60;;;;;;5072986;28;20031;-70
2023/07/09 02:19:43;;;;;;;14.38;5.22;;;22.00;67.70;;;;;;5073423;28;20103;-68
2023/07/09 02:22:10;;;;;;;11.00;5.47;;;22.00;67.80;;;;;;5073337;28;20461;-67
2023/07/09 02:24:36;;;;;;;17.10;5.40;;;22.00;68.20;;;;;;5072813;28;20166;-68
2023/07/09 02:27:03;;;;;;;12.85;5.20;;;21.90;68.50;;;;;;5072465;28;20513;-68
2023/07/09 02:29:30;;;;;;;16.88;5.00;;;22.00;68.40;;;;;;5072775;28;20032;-68
2023/07/09 02:31:57;;;;;;;12.13;5.07;;;22.00;68.30;;;;;;5073049;28;20025;-68
2023/07/09 02:34:25;;;;;;;11.13;4.82;;;21.90;68.50;;;;;;5072681;28;20020;-69
2023/07/09 02:36:55;;;;;;;7.88;4.32;;;21.90;68.90;;;;;;5072971;28;20051;-68
2023/07/09 02:39:22;;;;;;;5.93;4.18;;;21.80;68.60;;;;;;5072707;28;20031;-69
2023/07/09 02:41:48;;;;;;;7.28;4.07;;;21.80;68.80;;;;;;5073032;28;20111;-69
2023/07/09 02:44:15;;;;;;;8.30;4.47;;;21.80;68.70;;;;;;5072949;28;20025;-68
2023/07/09 02:46:40;;;;;;;8.73;4.65;;;21.80;68.90;;;;;;5072069;28;20072;-68
2023/07/09 02:49:09;;;;;;;6.55;4.93;;;21.80;69.20;;;;;;5072830;28;20485;-67
2023/07/09 02:51:34;;;;;;;7.63;4.30;;;21.70;69.30;;;;;;5072160;28;20078;-68
2023/07/09 02:54:02;;;;;;;9.18;4.63;;;21.70;69.40;;;;;;5072823;28;20024;-68
2023/07/09 02:56:27;;;;;;;7.80;4.38;;;21.70;69.50;;;;;;5072462;28;20028;-68
2023/07/09 02:58:53;;;;;;;10.02;4.28;;;21.60;69.50;;;;;;5072429;28;20036;-68
2023/07/09 03:01:24;;;;;;;6.80;4.10;;;21.60;69.80;;;;;;5072728;28;20116;-68
2023/07/09 03:03:54;;;;;;;7.03;4.15;;;21.60;69.70;;;;;;5072831;28;20067;-68
2023/07/09 03:06:21;;;;;;;7.40;3.92;;;21.60;69.40;;;;;;5072692;28;20035;-68
2023/07/09 03:08:47;;;;;;;8.63;4.07;;;21.60;69.10;;;;;;5072567;28;20404;-68
2023/07/09 03:11:14;;;;;;;7.70;3.90;;;21.60;69.70;;;;;;5072638;28;20054;-67
2023/07/09 03:13:40;;;;;;;6.28;4.40;;;21.60;69.00;;;;;;5071925;28;20421;-68
2023/07/09 03:16:05;;;;;;;8.30;4.00;;;21.60;69.20;;;;;;5072664;28;20063;-68
2023/07/09 03:18:31;;;;;;;5.68;3.83;;;21.60;69.30;;;;;;5071709;28;20454;-68
2023/07/09 03:20:58;;;;;;;7.00;4.30;;;21.60;69.00;;;;;;5072601;28;20033;-68
2023/07/09 03:23:23;;;;;;;6.90;4.00;;;21.60;69.50;;;;;;5072251;28;20024;-68
2023/07/09 03:25:49;;;;;;;6.70;4.20;;;21.50;69.40;;;;;;5072518;28;20043;-68
2023/07/09 03:28:15;;;;;;;6.78;4.10;;;21.50;69.80;;;;;;5072511;28;20055;-68
2023/07/09 03:30:46;;;;;;;6.32;3.95;;;21.50;69.70;;;;;;5072075;28;20024;-68
2023/07/09 03:33:12;;;;;;;;;;;21.50;69.80;;;;;;5072663;28;20074;-67
2023/07/09 03:35:38;;;;;;;6.80;3.28;;;21.50;69.80;;;;;;5072036;28;19944;-68
2023/07/09 03:38:05;;;;;;;4.68;3.53;;;21.40;69.40;;;;;;5074998;28;20031;-67
2023/07/09 03:40:31;;;;;;;10.05;4.63;;;21.40;69.50;;;;;;5076010;28;20040;-68
2023/07/09 03:42:57;;;;;;;7.47;3.78;;;21.40;69.50;;;;;;5076320;28;20043;-67
2023/07/09 03:45:23;;;;;;;6.07;3.78;;;21.50;69.50;;;;;;5076330;28;20038;-68
2023/07/09 03:47:49;;;;;;;5.28;3.60;;;21.50;69.30;;;;;;5076523;28;20110;-68
2023/07/09 03:50:15;;;;;;;6.00;3.70;;;21.50;69.10;;;;;;5075828;28;20043;-68
2023/07/09 03:52:41;;;;;;;8.07;3.83;;;21.60;69.00;;;;;;5075735;28;20063;-68
2023/07/09 03:55:07;;;;;;;6.38;3.67;;;21.50;68.60;;;;;;5076207;28;20040;-68
2023/07/09 03:57:33;;;;;;;5.22;4.18;;;21.50;68.90;;;;;;5075633;28;20033;-68
2023/07/09 04:00:00;;;;;;;5.68;3.90;;;21.60;69.00;;;;;;5076003;28;20036;-68
2023/07/09 04:02:25;;;;;;;6.38;3.80;;;21.60;69.10;;;;;;5075331;28;20025;-69
2023/07/09 04:04:51;;;;;;;6.63;3.80;;;21.60;69.00;;;;;;5075568;28;20082;-68
2023/07/09 04:07:17;;;;;;;8.05;3.72;;;21.60;68.60;;;;;;5075948;28;20032;-67
2023/07/09 04:09:42;;;;;;;8.20;3.85;;;21.60;68.70;;;;;;5075078;28;20036;-68
2023/07/09 04:12:11;;;;;;;6.93;3.78;;;21.60;68.70;;;;;;5075525;28;20025;-67
2023/07/09 04:14:37;;;;;;;7.03;4.13;;;21.70;68.70;;;;;;5074936;28;20033;-68
2023/07/09 04:17:03;;;;;;;8.32;4.20;;;21.80;68.40;;;;;;5075982;28;20029;-68
2023/07/09 04:19:29;;;;;;;4.80;3.78;;;21.80;68.10;;;;;;5074904;28;20031;-68
2023/07/09 04:21:55;;;;;;;7.80;3.83;;;21.90;67.80;;;;;;5075654;28;20028;-67
2023/07/09 04:24:20;;;;;;;7.22;3.80;;;22.00;67.60;;;;;;5075540;28;20021;-68
2023/07/09 04:26:47;;;;;;;7.45;3.92;;;22.00;67.20;;;;;;5074837;28;20097;-68
2023/07/09 04:29:14;;;;;;;10.18;3.97;;;22.10;67.10;;;;;;5075077;28;20473;-68
2023/07/09 04:31:40;;;;;;;5.80;4.07;;;22.20;66.80;;;;;;5075031;28;20033;-68
2023/07/09 04:34:06;;;;;;;4.55;3.15;;;22.40;66.30;;;;;;5075392;28;20032;-67
2023/07/09 04:36:32;;;;;;;6.47;3.63;;;22.40;66.10;;;;;;5074579;28;20039;-68
2023/07/09 04:38:58;;;;;;;5.53;3.60;;;22.50;65.70;;;;;;5075328;28;20529;-68
2023/07/09 04:41:24;;;;;;;7.60;4.18;;;22.60;65.40;;;;;;5075264;28;20028;-68
2023/07/09 04:43:49;;;;;;;4.50;3.42;;;22.70;65.30;;;;;;5075091;28;20032;-68
2023/07/09 04:46:15;;;;;;;5.60;3.85;;;22.80;65.40;;;;;;5075172;28;20127;-67
2023/07/09 04:48:41;;;;;;;7.80;4.07;;;23.10;64.90;;;;;;5073660;28;20028;-68
2023/07/09 04:51:06;;;;;;;4.78;3.53;;;23.20;64.70;;;;;;5075355;28;20029;-68
2023/07/09 04:53:32;;;;;;;7.75;4.38;;;23.50;64.10;;;;;;5074298;28;20059;-68
2023/07/09 04:55:58;;;;;;;6.78;3.88;;;23.70;64.00;;;;;;5074967;28;20029;-68
2023/07/09 04:58:23;;;;;;;7.55;4.07;;;23.90;63.10;;;;;;5075076;28;20033;-68
2023/07/09 05:00:50;;;;;;;5.25;4.10;;;24.20;62.40;;;;;;5074238;28;20531;-68
2023/07/09 05:03:17;;;;;;;6.70;3.70;;;24.50;61.40;;;;;;5074816;28;20026;-68
2023/07/09 05:05:44;;;;;;;5.25;3.65;;;24.80;60.80;;;;;;5074348;28;20032;-68
2023/07/09 05:08:10;;;;;;;5.43;4.20;;;25.20;59.90;;;;;;5074687;28;20469;-67
2023/07/09 05:10:45;;;;;;;7.22;3.72;;;25.70;58.40;;;;;;5074569;28;20032;-68
2023/07/09 05:13:11;;;;;;;7.90;4.07;;;26.20;57.30;;;;;;5074518;28;20028;-68
2023/07/09 05:15:40;;;;;;;5.55;3.92;;;26.80;56.40;;;;;;5074150;28;20036;-68
2023/07/09 05:18:07;;;;;;;9.60;4.47;;;27.30;54.00;;;;;;5074525;28;20048;-68
2023/07/09 05:20:33;;;;;;;6.60;3.75;;;27.60;53.20;;;;;;5073776;28;20032;-69
2023/07/09 05:22:59;;;;;;;5.63;3.58;;;27.90;53.10;;;;;;5074473;28;20090;-68
2023/07/09 05:25:24;;;;;;;6.57;3.55;;;28.40;52.00;;;;;;5073102;28;20020;-68
2023/07/09 05:27:51;;;;;;;5.47;4.13;;;28.90;51.00;;;;;;5073932;28;20824;-68
2023/07/09 05:30:17;;;;;;;8.68;4.53;;;29.20;49.50;;;;;;5074079;28;20037;-68
2023/07/09 05:32:43;;;;;;;9.60;4.00;;;29.50;49.20;;;;;;5073551;28;20111;-68
2023/07/09 05:35:09;;;;;;;4.85;3.65;;;29.90;48.60;;;;;;5074150;28;20095;-68
2023/07/09 05:37:36;;;;;;;5.30;3.50;;;29.90;46.90;;;;;;5073657;28;20111;-69
2023/07/09 05:40:04;;;;;;;5.05;3.60;;;30.00;47.20;;;;;;5073962;28;20384;-68
2023/07/09 05:42:30;;;;;;;6.63;3.65;;;30.40;46.80;;;;;;5073410;28;20027;-69
2023/07/09 05:44:55;;;;;;;5.75;3.75;;;30.70;47.10;;;;;;5073837;28;20373;-67
2023/07/09 05:47:21;;;;;;;5.65;3.88;;;31.00;46.20;;;;;;5073562;28;20401;-68
2023/07/09 05:49:49;;;;;;;11.38;4.07;;;31.00;46.10;;;;;;5073361;28;20362;-69
2023/07/09 05:52:15;;;;;;;6.07;4.03;;;31.10;45.80;;;;;;5073893;28;20028;-68
2023/07/09 05:54:41;;;;;;;11.57;4.18;;;31.50;45.40;;;;;;5073003;28;20375;-69
2023/07/09 05:57:07;;;;;;;8.52;4.22;;;31.90;45.30;;;;;;5073608;28;20033;-68
2023/07/09 05:59:32;;;;;;;5.95;3.85;;;32.10;44.70;;;;;;5073562;28;20052;-68
2023/07/09 06:02:00;;;;;;;6.60;3.83;;;32.50;44.10;;;;;;5073621;28;20068;-69
2023/07/09 06:04:26;;;;;;;6.20;3.70;;;32.80;43.90;;;;;;5073832;28;20031;-68
2023/07/09 06:06:52;;;;;;;9.20;4.55;;;33.30;43.10;;;;;;5073165;28;20017;-69
2023/07/09 06:09:17;;;;;;;7.30;4.13;;;33.60;43.00;;;;;;5073441;28;20028;-68
2023/07/09 06:11:43;;;;;;;6.75;4.10;;;34.00;42.70;;;;;;5073048;28;20070;-69
2023/07/09 06:14:09;;;;;;;5.93;3.53;;;34.60;41.60;;;;;;5073068;28;20048;-69
2023/07/09 06:16:35;;;;;;;5.70;3.65;;;35.10;40.60;;;;;;5072967;28;20104;-69
2023/07/09 06:19:01;;;;;;;7.55;3.90;;;35.60;40.60;;;;;;5073270;28;20119;-68
2023/07/09 06:21:27;;;;;;;6.75;3.45;;;36.20;39.60;;;;;;5073202;28;20032;-68
2023/07/09 06:23:52;;;;;;;8.60;3.97;;;36.70;38.90;;;;;;5072831;28;20020;-68
2023/07/09 06:26:19;;;;;;;5.43;3.60;;;37.40;37.90;;;;;;5073564;28;20028;-68
2023/07/09 06:28:45;;;;;;;4.50;3.50;;;37.90;37.50;;;;;;5072685;28;20040;-68
2023/07/09 06:31:10;;;;;;;6.25;3.65;;;38.20;36.50;;;;;;5073084;28;20115;-68
2023/07/09 06:33:36;;;;;;;4.72;3.42;;;38.30;36.50;;;;;;5072654;28;20025;-73
2023/07/09 06:36:02;;;;;;;4.80;3.50;;;38.70;36.10;;;;;;5073156;28;20560;-68
2023/07/09 06:38:29;;;;;;;9.57;3.75;;;38.80;35.80;;;;;;5072996;28;20037;-68
2023/07/09 06:40:55;;;;;;;4.75;2.97;;;39.30;34.80;;;;;;5072609;28;20052;-68
2023/07/09 06:43:21;;;;;;;6.30;3.60;;;39.30;35.00;;;;;;5073034;28;20522;-68
2023/07/09 06:45:50;;;;;;;4.25;3.60;;;39.40;34.20;;;;;;5072433;28;20469;-68
2023/07/09 06:48:15;;;;;;;5.55;3.33;;;39.20;34.60;;;;;;5073011;28;20028;-68
2023/07/09 06:50:41;;;;;;;6.05;3.40;;;39.80;34.10;;;;;;5072397;28;20418;-68
2023/07/09 06:53:06;;;;;;;6.13;3.55;;;40.30;33.70;;;;;;5072925;28;20025;-68
2023/07/09 06:55:32;;;;;;;5.40;3.40;;;40.00;33.80;;;;;;5072924;28;20082;-68
2023/07/09 06:57:57;;;;;;;4.18;3.40;;;40.10;33.20;;;;;;5072722;28;20540;-68
2023/07/09 07:00:23;;;;;;;4.75;3.60;;;39.80;33.30;;;;;;5072890;28;20032;-68
2023/07/09 07:02:49;;;;;;;6.00;3.45;;;39.10;34.20;;;;;;5072226;28;20028;-68
2023/07/09 07:05:15;;;;;;;4.88;3.88;;;39.10;34.10;;;;;;5072778;28;20029;-68
2023/07/09 07:07:40;;;;;;;7.55;3.83;;;39.70;33.40;;;;;;5072302;28;20024;-69
2023/07/09 07:10:06;;;;;;;6.78;4.07;;;39.70;33.40;;;;;;5071310;28;20037;-68
2023/07/09 07:12:45;;;;;;;7.15;3.63;;;39.80;32.60;;;;;;5071659;28;20111;-68
2023/07/09 07:15:13;;;;;;;4.72;3.58;;;39.80;32.30;;;;;;5072721;28;20031;-68
2023/07/09 07:17:39;;;;;;;6.20;3.20;;;39.90;32.50;;;;;;5072541;28;20074;-68
2023/07/09 07:20:06;;;;;;;7.60;3.80;;;39.90;32.50;;;;;;5072576;28;20416;-68
2023/07/09 07:22:31;;;;;;;5.28;3.65;;;40.10;32.70;;;;;;5072119;28;20021;-68
2023/07/09 07:24:57;;;;;;;4.25;3.05;;;39.90;32.40;;;;;;5071741;28;20484;-68
2023/07/09 07:27:22;;;;;;;4.35;3.53;;;39.70;32.90;;;;;;5072011;28;20099;-69
2023/07/09 07:29:48;;;;;;;6.47;3.83;;;40.00;33.10;;;;;;5072016;28;20024;-68
2023/07/09 07:32:14;;;;;;;4.32;3.47;;;40.10;32.60;;;;;;5072744;28;20024;-68
2023/07/09 07:34:39;;;;;;;5.00;3.78;;;40.20;32.50;;;;;;5070432;28;20241;-68
2023/07/09 07:37:05;;;;;;;3.97;3.47;;;40.30;32.50;;;;;;5072261;28;20032;-68
2023/07/09 07:39:31;;;;;;;7.78;3.75;;;40.50;32.80;;;;;;5072071;28;20384;-68
2023/07/09 07:41:57;;;;;;;8.55;3.90;;;41.00;31.70;;;;;;5071847;28;20368;-68
2023/07/09 07:44:23;;;;;;;7.00;3.20;;;40.80;31.90;;;;;;5072316;28;20033;-68
2023/07/09 07:46:48;;;;;;;7.78;3.97;;;40.50;32.00;;;;;;5071539;28;20045;-68
2023/07/09 07:49:14;;;;;;;7.25;3.63;;;40.50;31.80;;;;;;5072270;28;20032;-68
2023/07/09 07:51:40;;;;;;;6.60;3.80;;;40.80;31.80;;;;;;5072239;28;20029;-68
2023/07/09 07:54:08;;;;;;;4.25;3.65;;;40.70;32.10;;;;;;5071802;28;20031;-68
2023/07/09 07:56:34;;;;;;;5.00;3.33;;;40.40;31.30;;;;;;5072120;28;20039;-68
2023/07/09 07:58:59;;;;;;;5.43;3.47;;;40.60;31.50;;;;;;5071459;28;20033;-68
2023/07/09 08:01:26;;;;;;;6.05;3.38;;;40.50;31.40;;;;;;5071987;28;20102;-68
2023/07/09 08:03:51;;;;;;;4.00;3.60;;;40.50;32.10;;;;;;5071626;28;20106;-68
2023/07/09 08:06:17;;;;;;;5.38;3.50;;;40.90;31.90;;;;;;5071732;28;20037;-68
2023/07/09 08:08:43;;;;;;;4.85;3.72;;;40.70;32.10;;;;;;5071663;28;20037;-74
2023/07/09 08:11:09;;;;;;;6.90;3.78;;;40.30;31.50;;;;;;5071540;28;20109;-68
2023/07/09 08:13:36;;;;;;;3.78;3.45;;;40.00;32.40;;;;;;5071966;28;20082;-68
2023/07/09 08:16:02;;;;;;;6.43;3.83;;;40.40;31.80;;;;;;5071460;28;20032;-68
2023/07/09 08:18:27;;;;;;;4.82;3.47;;;40.30;31.70;;;;;;5072070;28;20108;-68
2023/07/09 08:20:53;;;;;;;4.25;3.45;;;40.00;31.80;;;;;;5071511;28;20060;-68
2023/07/09 08:23:19;;;;;;;5.07;3.17;;;39.60;31.90;;;;;;5071883;28;20056;-68
2023/07/09 08:25:51;;;;;;;4.63;3.20;;;39.60;32.30;;;;;;5074371;28;20031;-71
2023/07/09 08:28:17;;;;;;;5.18;3.25;;;39.60;32.40;;;;;;5074248;28;20049;-67
2023/07/09 08:30:43;;;;;;;4.18;3.67;;;39.80;33.10;;;;;;5075281;28;20020;-67
2023/07/09 08:33:08;;;;;;;4.95;3.45;;;39.90;32.80;;;;;;5074495;28;20381;-67
2023/07/09 08:35:34;;;;;;;8.07;3.80;;;39.80;32.50;;;;;;5075403;28;20030;-67
2023/07/09 08:37:59;;;;;;;4.80;3.45;;;39.70;32.10;;;;;;5074573;28;20024;-67
2023/07/09 08:40:25;;;;;;;5.93;3.65;;;39.10;32.10;;;;;;5075173;28;20029;-67
2023/07/09 08:42:56;;;;;;;6.00;3.90;;;38.50;33.00;;;;;;5074718;28;20028;-67
2023/07/09 08:45:47;;;;;;;7.43;4.07;;;37.90;33.20;;;;;;5075159;28;20099;-67
2023/07/09 08:48:21;;;;;;;5.75;3.83;;;37.50;34.30;;;;;;5073750;28;20397;-68
2023/07/09 08:50:54;;;;;;;4.63;3.30;;;36.90;35.10;;;;;;5074519;28;20024;-68
2023/07/09 08:53:41;;;;;;;6.38;3.63;;;36.70;35.20;;;;;;5074784;28;20027;-67
2023/07/09 08:56:09;;;;;;;12.07;4.10;;;36.70;35.10;;;;;;5074187;28;20060;-68
2023/07/09 08:58:38;;;;;;;7.43;3.78;;;36.30;35.50;;;;;;5074902;28;20696;-67
2023/07/09 09:01:11;;;;;;;4.88;3.70;;;36.30;35.90;;;;;;5074258;28;20021;-68
2023/07/09 09:04:00;;;;;;;6.72;4.05;;;35.80;35.80;;;;;;5074909;28;20027;-68
2023/07/09 09:06:28;;;;;;;5.70;3.85;;;35.40;36.70;;;;;;5074877;28;20027;-68
2023/07/09 09:09:15;;;;;;;6.47;4.07;;;35.30;36.50;;;;;;5074098;28;20024;-68
2023/07/09 09:11:53;;;;;;;4.03;3.53;;;34.90;37.10;;;;;;5074354;28;20032;-68
2023/07/09 09:14:43;;;;;;;6.78;3.67;;;34.70;37.40;;;;;;5074554;28;20100;-68
2023/07/09 09:17:19;;;;;;;6.10;3.28;;;34.50;37.80;;;;;;5073915;28;20033;-68
2023/07/09 09:19:55;;;;;;;5.57;3.88;;;34.60;37.40;;;;;;5074513;28;20036;-68
2023/07/09 09:22:30;;;;;;;7.22;3.70;;;34.60;37.60;;;;;;5074583;28;20427;-67
2023/07/09 09:25:03;;;;;;;6.75;3.70;;;34.30;36.70;;;;;;5073673;28;20354;-68
2023/07/09 09:27:29;;;;;;;6.13;3.97;;;33.90;37.20;;;;;;5074111;28;20025;-69
2023/07/09 09:29:55;;;;;;;4.18;3.60;;;33.60;37.80;;;;;;5073301;28;20564;-68
2023/07/09 09:32:26;;;;;;;5.15;3.65;;;33.50;37.70;;;;;;5074332;28;20086;-68
2023/07/09 09:34:51;;;;;;;4.10;3.28;;;33.60;39.00;;;;;;5073330;28;20029;-68
2023/07/09 09:37:27;;;;;;;7.05;3.63;;;33.60;37.30;;;;;;5073498;28;20443;-68
2023/07/09 09:39:53;;;;;;;5.70;3.55;;;33.30;37.70;;;;;;5073617;28;20086;-68
2023/07/09 09:42:19;;;;;;;7.90;4.00;;;33.00;37.80;;;;;;5073958;28;20025;-68
2023/07/09 09:44:45;;;;;;;8.68;3.25;;;32.80;38.10;;;;;;5073642;28;20017;-68
2023/07/09 09:47:12;;;;;;;5.32;3.45;;;32.80;38.70;;;;;;5073391;28;20461;-69
2023/07/09 09:49:44;;;;;;;5.70;3.53;;;33.00;39.20;;;;;;5073579;28;20376;-68
2023/07/09 09:52:14;;;;;;;4.90;3.60;;;33.10;38.90;;;;;;5072983;28;20032;-69
2023/07/09 09:54:44;;;;;;;7.10;3.63;;;33.20;39.30;;;;;;5073924;28;20467;-68
2023/07/09 09:57:23;;;;;;;5.70;3.67;;;33.30;38.00;;;;;;5073242;28;20029;-69
2023/07/09 09:59:50;;;;;;;6.07;3.97;;;33.30;37.60;;;;;;5073396;28;20037;-70
2023/07/09 10:02:25;;;;;;;7.47;3.95;;;33.20;37.50;;;;;;5073141;28;20037;-68
2023/07/09 10:04:51;;;;;;;5.13;3.38;;;33.20;37.70;;;;;;5073409;28;20470;-68
2023/07/09 10:07:37;;;;;;;3.72;3.05;;;33.20;34.40;;;;;;5073234;28;20055;-68
2023/07/09 10:10:13;;;;;;;3.58;3.13;;;33.20;35.10;;;;;;5072266;28;20127;-69
2023/07/09 10:12:47;;;;;;;4.78;3.28;;;33.10;35.70;;;;;;5073450;28;20465;-69
2023/07/09 10:15:26;;;;;;;6.88;3.72;;;33.00;35.30;;;;;;5072907;28;20098;-68
2023/07/09 10:17:51;;;;;;;5.85;3.50;;;32.90;35.40;;;;;;5073252;28;20024;-68
2023/07/09 10:20:17;;;;;;;6.18;4.18;;;32.80;36.10;;;;;;5073343;28;20111;-70
2023/07/09 10:22:55;;;;;;;5.18;4.28;;;32.80;37.60;;;;;;5073259;28;20037;-68
2023/07/09 10:25:37;;;;;;;4.13;3.42;;;33.00;37.40;;;;;;5072882;28;20430;-68
2023/07/09 10:28:21;;;;;;;5.70;4.55;;;33.10;37.20;;;;;;5072659;28;20085;-68
2023/07/09 10:30:46;;;;;;;4.97;3.42;;;33.20;36.40;;;;;;5073026;28;20135;-68
2023/07/09 10:33:35;;;;;;;4.72;3.97;;;33.30;35.60;;;;;;5072655;28;20492;-68
2023/07/09 10:36:20;;;;;;;4.22;3.50;;;33.10;35.00;;;;;;5041112;28;20366;-68
2023/07/09 10:38:49;;;;;;;4.05;3.40;;;33.00;35.30;;;;;;5073088;28;20035;-67
2023/07/09 10:41:17;;;;;;;6.38;3.78;;;33.00;35.50;;;;;;5072834;28;20016;-68
2023/07/09 10:44:04;;;;;;;7.15;3.50;;;33.10;35.40;;;;;;5072971;28;20037;-68
2023/07/09 10:46:34;;;;;;;6.75;3.35;;;33.10;34.80;;;;;;5071940;28;20507;-68
2023/07/09 10:49:02;;;;;;;5.13;3.70;;;33.20;33.50;;;;;;5072448;28;20020;-69
2023/07/09 10:51:34;;;;;;;3.97;3.13;;;33.20;34.10;;;;;;5072683;28;20063;-68
2023/07/09 10:54:19;;;;;;;6.20;3.45;;;33.30;34.80;;;;;;5072389;28;20020;-68
2023/07/09 10:56:49;;;;;;;6.50;3.90;;;33.30;35.10;;;;;;5072796;28;20129;-67
2023/07/09 10:59:26;;;;;;;6.90;3.47;;;33.40;35.30;;;;;;5072303;28;20661;-68
2023/07/09 11:02:13;;;;;;;6.40;3.47;;;33.50;34.20;;;;;;5072532;28;20115;-68
2023/07/09 11:04:46;;;;;;;5.30;3.47;;;33.60;33.70;;;;;;5072818;28;20039;-68
2023/07/09 11:07:17;;;;;;;4.80;3.38;;;33.50;33.80;;;;;;5072351;28;20025;-68
2023/07/09 11:09:46;;;;;;;5.10;3.17;;;33.60;33.80;;;;;;5072752;28;20032;-68
2023/07/09 11:12:17;;;;;;;4.50;3.38;;;33.60;33.90;;;;;;5072152;28;20385;-68
2023/07/09 11:14:49;;;;;;;4.78;3.75;;;33.60;33.70;;;;;;5072564;28;20496;-68
2023/07/09 11:17:18;;;;;;;7.97;3.63;;;33.60;34.00;;;;;;5072120;28;20035;-68
2023/07/09 11:19:53;;;;;;;6.78;3.75;;;33.70;34.90;;;;;;5072492;28;20032;-68
2023/07/09 11:22:39;;;;;;;5.88;3.30;;;33.60;33.00;;;;;;5072141;28;20161;-67
2023/07/09 11:25:14;;;;;;;4.68;3.33;;;33.60;33.10;;;;;;5072167;28;20029;-67
2023/07/09 11:27:51;;;;;;;4.10;3.42;;;33.70;34.20;;;;;;5073456;28;20032;-67
2023/07/09 11:30:22;;;;;;;4.00;3.17;;;33.70;33.90;;;;;;5073755;28;20024;-67
2023/07/09 11:32:53;;;;;;;3.58;3.20;;;33.80;33.40;;;;;;5073512;28;20375;-68
2023/07/09 11:35:25;;;;;;;5.38;3.33;;;33.80;33.60;;;;;;5071491;28;20404;-69
2023/07/09 11:37:52;;;;;;;6.30;3.63;;;33.90;34.20;;;;;;5072353;28;20128;-69
2023/07/09 11:40:19;;;;;;;9.00;4.05;;;33.90;34.40;;;;;;5071864;28;20036;-69
2023/07/09 11:42:55;;;;;;;5.88;4.13;;;34.00;34.80;;;;;;5072234;28;20028;-69
2023/07/09 11:45:31;;;;;;;6.32;3.58;;;34.10;35.70;;;;;;5071655;28;20059;-69
2023/07/09 11:48:08;;;;;;;3.65;3.35;;;34.10;33.60;;;;;;5072408;28;20086;-69
2023/07/09 11:50:47;;;;;;;7.15;2.85;;;34.10;33.60;;;;;;5070930;28;20410;-69
2023/07/09 11:53:39;;;;;;;4.22;3.25;;;34.00;32.60;;;;;;5071733;28;20488;-69
2023/07/09 11:56:08;;;;;;;9.85;4.45;;;33.80;32.80;;;;;;5071910;28;20039;-69
2023/07/09 11:58:33;;;;;;;9.65;5.00;;;33.80;33.90;;;;;;5074053;28;20034;-69
2023/07/09 12:01:01;;;;;;;10.40;4.43;;;33.70;34.00;;;;;;5076116;28;20128;-68
2023/07/09 12:03:32;;;;;;;4.72;3.50;;;33.70;34.50;;;;;;5075674;28;20028;-69
2023/07/09 12:06:23;;;;;;;5.20;3.78;;;33.60;33.90;;;;;;5074592;28;20115;-69
2023/07/09 12:08:50;;;;;;;5.80;3.80;;;33.60;34.20;;;;;;5070425;28;20037;-69
2023/07/09 12:11:31;;;;;;;4.68;3.40;;;33.50;34.50;;;;;;5074998;28;20032;-69
2023/07/09 12:14:09;;;;;;;5.57;3.72;;;33.50;35.30;;;;;;5075330;28;20111;-69
2023/07/09 12:16:41;;;;;;;4.53;3.83;;;33.60;34.60;;;;;;5075769;28;20082;-69
2023/07/09 12:19:10;;;;;;;4.97;3.40;;;33.60;35.10;;;;;;5075120;28;20115;-69
2023/07/09 12:21:39;;;;;;;4.88;3.50;;;33.50;34.90;;;;;;5075450;28;20028;-69
2023/07/09 12:24:25;;;;;;;4.93;3.90;;;33.50;35.20;;;;;;5074754;28;20024;-69
2023/07/09 12:26:59;;;;;;;4.22;3.83;;;33.40;33.90;;;;;;5075424;28;20035;-68
2023/07/09 12:29:30;;;;;;;6.25;3.53;;;33.30;33.90;;;;;;5075016;28;20130;-69
2023/07/09 12:32:02;;;;;;;4.50;3.42;;;33.20;33.00;;;;;;5075307;28;20043;-69
2023/07/09 12:34:31;;;;;;;6.60;2.97;;;33.20;32.40;;;;;;5075422;28;20074;-69
2023/07/09 12:36:57;;;;;;;4.03;2.97;;;33.10;32.20;;;;;;5075194;28;20104;-69
2023/07/09 12:39:29;;;;;;;18.60;12.30;;;33.10;32.40;;;;;;5074937;28;20032;-69
2023/07/09 12:42:01;;;;;;;7.85;3.55;;;33.10;33.40;;;;;;5075098;28;20358;-69
2023/07/09 12:44:36;;;;;;;9.38;6.15;;;33.10;32.10;;;;;;5074538;28;20111;-68
2023/07/09 12:47:02;;;;;;;12.80;6.38;;;33.10;32.80;;;;;;5074974;28;20125;-68
2023/07/09 12:49:31;;;;;;;3.13;2.80;;;33.10;31.90;;;;;;5074662;28;20032;-68
2023/07/09 12:52:02;;;;;;;5.45;2.80;;;32.90;29.90;;;;;;5074855;28;20032;-68
2023/07/09 12:54:31;;;;;;;6.00;4.95;;;32.80;30.00;;;;;;5074445;28;20029;-67